createdAt,value
2022-09-22T00:00:24.928Z,11.10
2022-09-22T00:01:33.675Z,11.00
2022-09-22T00:02:37.434Z,11.00
2022-09-22T00:03:44.763Z,11.00
2022-09-22T00:04:47.297Z,11.00
2022-09-22T00:05:49.418Z,11.00
2022-09-22T00:06:53.810Z,11.10
2022-09-22T00:07:55.495Z,11.00
2022-09-22T00:09:01.883Z,11.00
2022-09-22T00:10:04.033Z,11.00
2022-09-22T00:11:29.083Z,11.00
2022-09-22T00:12:30.808Z,11.00
2022-09-22T00:13:33.515Z,11.00
2022-09-22T00:14:35.605Z,10.90
2022-09-22T00:15:37.539Z,10.90
2022-09-22T00:16:46.134Z,10.90
2022-09-22T00:17:48.169Z,11.00
2022-09-22T00:18:50.268Z,11.00
2022-09-22T00:19:51.991Z,11.00
2022-09-22T00:20:54.494Z,11.00
2022-09-22T00:21:56.795Z,11.00
2022-09-22T00:22:58.992Z,11.00
2022-09-22T00:24:07.311Z,11.00
2022-09-22T00:25:10.380Z,11.00
2022-09-22T00:26:18.692Z,11.00
2022-09-22T00:27:26.808Z,11.00
2022-09-22T00:28:28.672Z,11.00
2022-09-22T00:29:57.769Z,10.90
2022-09-22T00:30:59.920Z,11.00
2022-09-22T00:32:07.001Z,11.00
2022-09-22T00:33:10.119Z,11.00
2022-09-22T00:34:21.857Z,10.90
2022-09-22T00:35:23.978Z,10.90
2022-09-22T00:36:28.230Z,10.90
2022-09-22T00:37:30.133Z,10.90
2022-09-22T00:38:33.400Z,10.90
2022-09-22T00:39:35.214Z,10.90
2022-09-22T00:41:22.729Z,10.90
2022-09-22T00:42:25.954Z,10.90
2022-09-22T00:43:30.499Z,10.90
2022-09-22T00:44:37.351Z,10.80
2022-09-22T00:45:39.160Z,10.90
2022-09-22T00:46:44.764Z,10.90
2022-09-22T00:48:24.138Z,10.90
2022-09-22T00:49:56.467Z,10.90
2022-09-22T00:51:02.853Z,10.90
2022-09-22T00:52:07.793Z,10.90
2022-09-22T00:53:19.921Z,10.90
2022-09-22T00:54:22.561Z,10.90
2022-09-22T00:55:47.378Z,10.90
2022-09-22T00:57:06.698Z,10.90
2022-09-22T00:58:17.559Z,10.90
2022-09-22T00:59:21.654Z,10.80
2022-09-22T01:00:23.540Z,10.80
2022-09-22T01:01:25.869Z,10.80
2022-09-22T01:02:27.654Z,10.80
2022-09-22T01:03:30.496Z,10.80
2022-09-22T01:04:36.526Z,10.90
2022-09-22T01:05:42.509Z,10.90
2022-09-22T01:06:46.430Z,10.90
2022-09-22T01:07:51.561Z,10.90
2022-09-22T01:08:55.596Z,10.90
2022-09-22T01:09:57.698Z,10.90
2022-09-22T01:10:59.860Z,10.90
2022-09-22T01:12:03.222Z,10.90
2022-09-22T01:13:44.230Z,10.90
2022-09-22T01:15:24.980Z,10.90
2022-09-22T01:16:42.003Z,10.90
2022-09-22T01:18:08.181Z,10.80
2022-09-22T01:19:24.509Z,10.80
2022-09-22T01:21:13.779Z,10.80
2022-09-22T01:22:49.778Z,10.80
2022-09-22T01:24:24.971Z,10.80
2022-09-22T01:32:56.347Z,10.60
2022-09-22T01:34:09.550Z,10.60
2022-09-22T01:35:36.500Z,10.60
2022-09-22T01:36:50.770Z,10.60
2022-09-22T01:38:02.483Z,10.70
2022-09-22T01:42:28.689Z,10.70
2022-09-22T01:45:44.249Z,10.70
2022-09-22T01:47:00.853Z,10.60
2022-09-22T01:48:14.141Z,10.70
2022-09-22T01:49:22.336Z,10.70
2022-09-22T01:50:39.813Z,10.70
2022-09-22T01:51:50.262Z,10.70
2022-09-22T01:52:55.126Z,10.70
2022-09-22T01:54:17.092Z,10.80
2022-09-22T01:55:24.898Z,10.80
2022-09-22T01:56:30.549Z,10.80
2022-09-22T01:57:41.700Z,10.80
2022-09-22T01:58:55.778Z,10.80
2022-09-22T02:00:04.912Z,10.80
2022-09-22T02:01:17.845Z,10.80
2022-09-22T02:02:27.773Z,10.80
2022-09-22T02:03:38.963Z,10.80
2022-09-22T02:04:48.180Z,10.80
2022-09-22T02:05:58.069Z,10.80
2022-09-22T02:07:07.416Z,10.80
2022-09-22T02:08:16.930Z,10.80
2022-09-22T02:09:42.438Z,10.80
2022-09-22T02:10:47.659Z,10.80
2022-09-22T02:11:50.098Z,10.80
2022-09-22T02:12:52.354Z,10.80
2022-09-22T02:13:54.320Z,10.80
2022-09-22T02:14:59.373Z,10.80
2022-09-22T02:16:02.600Z,10.80
2022-09-22T02:17:17.200Z,10.80
2022-09-22T02:18:26.441Z,10.80
2022-09-22T02:19:38.056Z,10.80
2022-09-22T02:20:45.544Z,10.80
2022-09-22T02:21:49.795Z,10.80
2022-09-22T02:22:52.682Z,10.70
2022-09-22T02:23:55.007Z,10.80
2022-09-22T02:24:57.379Z,10.80
2022-09-22T02:26:04.113Z,10.80
2022-09-22T02:27:20.604Z,10.70
2022-09-22T02:28:25.553Z,10.80
2022-09-22T02:29:31.122Z,10.80
2022-09-22T02:30:34.809Z,10.70
2022-09-22T02:31:39.619Z,10.70
2022-09-22T02:32:50.996Z,10.70
2022-09-22T02:33:54.075Z,10.70
2022-09-22T02:34:57.001Z,10.80
2022-09-22T02:36:40.017Z,10.80
2022-09-22T02:37:58.655Z,10.80
2022-09-22T02:39:27.230Z,10.70
2022-09-22T02:40:44.981Z,10.70
2022-09-22T02:42:14.161Z,10.70
2022-09-22T02:43:37.361Z,10.70
2022-09-22T02:44:50.152Z,10.60
2022-09-22T02:46:25.944Z,10.70
2022-09-22T02:48:06.726Z,10.70
2022-09-22T02:49:23.736Z,10.60
2022-09-22T02:50:34.773Z,10.60
2022-09-22T02:52:00.494Z,10.60
2022-09-22T02:53:11.745Z,10.60
2022-09-22T02:54:15.474Z,10.60
2022-09-22T02:55:17.638Z,10.60
2022-09-22T02:56:33.689Z,10.60
2022-09-22T02:57:38.458Z,10.60
2022-09-22T02:58:41.251Z,10.60
2022-09-22T02:59:45.131Z,10.60
2022-09-22T03:00:48.847Z,10.70
2022-09-22T03:01:51.856Z,10.70
2022-09-22T03:02:57.232Z,10.70
2022-09-22T03:04:07.132Z,10.70
2022-09-22T03:05:09.263Z,10.60
2022-09-22T03:06:12.432Z,10.70
2022-09-22T03:07:14.708Z,10.70
2022-09-22T03:08:17.196Z,10.70
2022-09-22T03:10:07.268Z,10.70
2022-09-22T03:11:20.429Z,10.70
2022-09-22T03:12:36.600Z,10.60
2022-09-22T03:14:24.540Z,10.60
2022-09-22T03:17:42.678Z,10.60
2022-09-22T03:23:48.640Z,10.50
2022-09-22T03:25:03.178Z,10.50
2022-09-22T03:26:25.142Z,10.50
2022-09-22T03:27:28.434Z,10.60
2022-09-22T03:28:30.925Z,10.60
2022-09-22T03:29:33.096Z,10.60
2022-09-22T03:30:50.759Z,10.60
2022-09-22T03:31:59.846Z,10.70
2022-09-22T03:33:02.176Z,10.70
2022-09-22T03:34:04.344Z,10.70
2022-09-22T03:35:07.595Z,10.70
2022-09-22T03:36:09.994Z,10.70
2022-09-22T03:37:32.754Z,10.70
2022-09-22T03:38:35.731Z,10.70
2022-09-22T03:39:38.214Z,10.70
2022-09-22T03:40:41.731Z,10.70
2022-09-22T03:41:45.498Z,10.70
2022-09-22T03:42:50.686Z,10.80
2022-09-22T03:43:53.101Z,10.70
2022-09-22T03:44:55.495Z,10.70
2022-09-22T03:45:59.745Z,10.70
2022-09-22T03:47:03.092Z,10.70
2022-09-22T03:48:14.213Z,10.70
2022-09-22T03:49:22.882Z,10.70
2022-09-22T03:50:33.702Z,10.70
2022-09-22T03:52:05.431Z,10.70
2022-09-22T03:53:15.741Z,10.70
2022-09-22T03:54:24.220Z,10.70
2022-09-22T03:55:36.068Z,10.70
2022-09-22T03:56:39.696Z,10.60
2022-09-22T03:57:42.497Z,10.60
2022-09-22T03:58:44.495Z,10.50
2022-09-22T03:59:49.866Z,10.50
2022-09-22T04:00:54.419Z,10.50
2022-09-22T04:01:58.356Z,10.60
2022-09-22T04:03:35.499Z,10.60
2022-09-22T04:04:40.270Z,10.60
2022-09-22T04:05:51.045Z,10.50
2022-09-22T04:09:45.569Z,10.50
2022-09-22T04:11:52.441Z,10.40
2022-09-22T04:15:57.602Z,10.40
2022-09-22T04:16:59.431Z,10.30
2022-09-22T04:18:01.558Z,10.30
2022-09-22T04:19:06.224Z,10.40
2022-09-22T04:20:09.191Z,10.40
2022-09-22T04:21:13.985Z,10.40
2022-09-22T04:22:19.157Z,10.40
2022-09-22T04:23:25.738Z,10.40
2022-09-22T04:24:32.834Z,10.40
2022-09-22T04:25:37.230Z,10.40
2022-09-22T04:28:07.097Z,10.40
2022-09-22T04:29:11.390Z,10.40
2022-09-22T04:30:23.082Z,10.30
2022-09-22T04:31:37.218Z,10.40
2022-09-22T04:35:22.510Z,10.30
2022-09-22T04:38:41.919Z,10.20
2022-09-22T04:39:55.198Z,10.20
2022-09-22T04:42:29.240Z,10.10
2022-09-22T04:43:44.646Z,10.10
2022-09-22T04:44:51.641Z,10.10
2022-09-22T04:45:54.519Z,10.20
2022-09-22T04:46:59.575Z,10.20
2022-09-22T04:48:04.784Z,10.20
2022-09-22T04:49:13.749Z,10.20
2022-09-22T04:50:22.970Z,10.20
2022-09-22T04:52:26.840Z,10.20
2022-09-22T04:53:31.716Z,10.20
2022-09-22T04:54:47.839Z,10.20
2022-09-22T04:55:54.319Z,10.20
2022-09-22T04:56:58.415Z,10.20
2022-09-22T04:58:02.614Z,10.20
2022-09-22T04:59:05.770Z,10.30
2022-09-22T05:00:08.474Z,10.30
2022-09-22T05:01:10.509Z,10.30
2022-09-22T05:02:12.280Z,10.20
2022-09-22T05:05:45.896Z,10.30
2022-09-22T05:09:09.019Z,10.20
2022-09-22T05:10:27.496Z,10.10
2022-09-22T05:11:41.034Z,10.20
2022-09-22T05:12:43.720Z,10.20
2022-09-22T05:13:47.979Z,10.20
2022-09-22T05:15:00.489Z,10.20
2022-09-22T05:16:09.875Z,10.30
2022-09-22T05:17:17.380Z,10.20
2022-09-22T05:18:19.668Z,10.20
2022-09-22T05:19:37.967Z,10.20
2022-09-22T05:20:52.009Z,10.20
2022-09-22T05:23:33.409Z,10.10
2022-09-22T05:24:35.609Z,10.10
2022-09-22T05:25:47.655Z,10.10
2022-09-22T05:26:50.560Z,10.10
2022-09-22T05:29:40.455Z,10.10
2022-09-22T05:31:42.666Z,10.00
2022-09-22T05:32:48.940Z,10.10
2022-09-22T05:33:51.296Z,10.10
2022-09-22T05:34:53.111Z,10.10
2022-09-22T05:35:54.816Z,10.10
2022-09-22T05:36:58.470Z,10.10
2022-09-22T05:38:00.675Z,10.10
2022-09-22T05:39:03.553Z,10.20
2022-09-22T05:40:28.164Z,10.10
2022-09-22T05:41:31.634Z,10.20
2022-09-22T05:42:33.914Z,10.20
2022-09-22T05:43:35.954Z,10.20
2022-09-22T05:44:38.932Z,10.20
2022-09-22T05:45:40.844Z,10.20
2022-09-22T05:46:42.984Z,10.20
2022-09-22T05:47:45.498Z,10.20
2022-09-22T05:48:51.779Z,10.20
2022-09-22T05:49:56.915Z,10.20
2022-09-22T05:50:59.311Z,10.20
2022-09-22T05:52:02.860Z,10.10
2022-09-22T05:53:10.148Z,10.10
2022-09-22T05:54:12.443Z,10.10
2022-09-22T05:55:14.654Z,10.10
2022-09-22T05:56:20.614Z,10.10
2022-09-22T05:57:26.248Z,10.10
2022-09-22T05:58:28.918Z,10.00
2022-09-22T05:59:31.075Z,10.00
2022-09-22T06:00:33.124Z,10.00
2022-09-22T06:01:36.361Z,10.10
2022-09-22T06:02:39.307Z,10.10
2022-09-22T06:03:47.629Z,10.10
2022-09-22T06:04:52.468Z,10.10
2022-09-22T06:06:00.104Z,10.10
2022-09-22T06:07:11.494Z,10.10
2022-09-22T06:08:14.608Z,10.20
2022-09-22T06:09:16.891Z,10.30
2022-09-22T06:10:18.598Z,10.20
2022-09-22T06:11:29.501Z,10.30
2022-09-22T06:12:37.844Z,10.40
2022-09-22T06:13:47.044Z,10.70
2022-09-22T06:14:52.279Z,10.80
2022-09-22T06:15:55.252Z,10.70
2022-09-22T06:16:57.954Z,10.70
2022-09-22T06:18:03.603Z,10.70
2022-09-22T06:19:08.382Z,10.70
2022-09-22T06:20:11.353Z,10.70
2022-09-22T06:21:26.666Z,10.60
2022-09-22T06:22:39.211Z,10.70
2022-09-22T06:23:42.983Z,10.70
2022-09-22T06:24:48.878Z,10.70
2022-09-22T06:25:57.103Z,10.60
2022-09-22T06:26:59.872Z,10.70
2022-09-22T06:28:05.380Z,10.70
2022-09-22T06:29:09.612Z,10.70
2022-09-22T06:30:15.603Z,10.80
2022-09-22T06:31:17.636Z,10.80
2022-09-22T06:32:23.124Z,10.80
2022-09-22T06:33:24.882Z,10.90
2022-09-22T06:34:27.961Z,10.90
2022-09-22T06:35:37.900Z,10.90
2022-09-22T06:36:57.109Z,10.90
2022-09-22T06:39:18.236Z,11.00
2022-09-22T06:40:29.389Z,11.00
2022-09-22T06:41:50.627Z,11.00
2022-09-22T06:42:59.474Z,11.00
2022-09-22T06:44:01.320Z,11.00
2022-09-22T06:45:05.086Z,11.00
2022-09-22T06:46:13.863Z,11.00
2022-09-22T06:47:15.876Z,11.10
2022-09-22T06:48:24.044Z,11.00
2022-09-22T06:49:26.300Z,11.00
2022-09-22T06:50:37.995Z,11.00
2022-09-22T06:51:49.584Z,11.10
2022-09-22T06:52:53.351Z,11.10
2022-09-22T06:53:56.104Z,11.10
2022-09-22T06:55:01.953Z,11.10
2022-09-22T06:56:13.454Z,11.10
2022-09-22T06:57:51.360Z,11.10
2022-09-22T06:59:09.981Z,11.20
2022-09-22T07:00:19.051Z,11.10
2022-09-22T07:01:25.136Z,11.20
2022-09-22T07:02:29.244Z,11.30
2022-09-22T07:03:33.371Z,11.40
2022-09-22T07:04:35.291Z,11.60
2022-09-22T07:05:37.397Z,11.70
2022-09-22T07:06:40.760Z,11.70
2022-09-22T07:07:42.735Z,11.70
2022-09-22T07:08:48.861Z,11.80
2022-09-22T07:09:50.627Z,11.80
2022-09-22T07:10:58.278Z,11.80
2022-09-22T07:12:00.526Z,11.80
2022-09-22T07:13:02.347Z,11.90
2022-09-22T07:14:04.348Z,11.80
2022-09-22T07:15:07.805Z,11.90
2022-09-22T07:16:17.830Z,11.90
2022-09-22T07:17:23.569Z,12.00
2022-09-22T07:18:25.531Z,12.00
2022-09-22T07:19:27.433Z,12.00
2022-09-22T07:20:29.328Z,12.00
2022-09-22T07:21:36.761Z,12.10
2022-09-22T07:22:42.719Z,12.10
2022-09-22T07:23:44.589Z,12.10
2022-09-22T07:24:47.634Z,12.10
2022-09-22T07:25:58.267Z,12.20
2022-09-22T07:27:04.381Z,12.20
2022-09-22T07:28:06.191Z,12.30
2022-09-22T07:29:11.609Z,12.30
2022-09-22T07:30:14.046Z,12.30
2022-09-22T07:31:16.449Z,12.40
2022-09-22T07:32:18.701Z,12.40
2022-09-22T07:33:21.088Z,12.40
2022-09-22T07:34:23.746Z,12.40
2022-09-22T07:35:28.593Z,12.50
2022-09-22T07:36:33.495Z,12.50
2022-09-22T07:37:36.139Z,12.50
2022-09-22T07:38:39.213Z,12.50
2022-09-22T07:39:40.939Z,12.60
2022-09-22T07:40:53.195Z,12.60
2022-09-22T07:41:55.470Z,12.60
2022-09-22T07:42:57.649Z,12.60
2022-09-22T07:44:19.662Z,12.60
2022-09-22T07:45:29.067Z,12.70
2022-09-22T07:46:42.549Z,12.60
2022-09-22T07:48:09.281Z,12.70
2022-09-22T07:49:11.071Z,12.70
2022-09-22T07:50:13.620Z,12.70
2022-09-22T07:51:23.432Z,12.80
2022-09-22T07:52:30.199Z,12.80
2022-09-22T07:53:32.502Z,12.80
2022-09-22T07:54:37.040Z,12.80
2022-09-22T07:55:39.209Z,12.80
2022-09-22T07:56:45.271Z,12.80
2022-09-22T07:57:56.971Z,12.90
2022-09-22T07:59:11.198Z,12.90
2022-09-22T08:00:19.195Z,12.90
2022-09-22T08:01:24.396Z,12.90
2022-09-22T08:02:30.722Z,13.00
2022-09-22T08:03:36.031Z,13.00
2022-09-22T08:04:38.265Z,13.00
2022-09-22T08:05:45.171Z,13.00
2022-09-22T08:06:55.848Z,13.00
2022-09-22T08:08:01.099Z,13.00
2022-09-22T08:09:06.897Z,13.00
2022-09-22T08:10:11.322Z,13.00
2022-09-22T08:11:34.338Z,13.00
2022-09-22T08:12:47.840Z,13.10
2022-09-22T08:14:06.919Z,13.10
2022-09-22T08:15:24.591Z,13.10
2022-09-22T08:16:47.495Z,13.10
2022-09-22T08:17:50.895Z,13.10
2022-09-22T08:18:59.391Z,13.10
2022-09-22T08:20:05.174Z,13.10
2022-09-22T08:21:08.062Z,13.20
2022-09-22T08:22:10.922Z,13.20
2022-09-22T08:23:13.249Z,13.20
2022-09-22T08:24:16.535Z,13.30
2022-09-22T08:25:18.358Z,13.20
2022-09-22T08:26:21.131Z,13.20
2022-09-22T08:27:23.067Z,13.20
2022-09-22T08:28:24.975Z,13.20
2022-09-22T08:29:26.843Z,13.30
2022-09-22T08:30:28.872Z,13.30
2022-09-22T08:31:32.494Z,13.30
2022-09-22T08:32:36.293Z,13.40
2022-09-22T08:33:38.622Z,13.30
2022-09-22T08:34:40.251Z,13.40
2022-09-22T08:35:55.578Z,13.40
2022-09-22T08:36:57.408Z,13.40
2022-09-22T08:37:59.099Z,13.50
2022-09-22T08:39:02.466Z,13.60
2022-09-22T08:40:06.147Z,13.60
2022-09-22T08:41:18.898Z,13.60
2022-09-22T08:42:23.118Z,13.60
2022-09-22T08:43:25.243Z,13.50
2022-09-22T08:44:37.568Z,13.50
2022-09-22T08:45:40.710Z,13.50
2022-09-22T08:46:44.751Z,13.50
2022-09-22T08:48:10.991Z,13.50
2022-09-22T08:49:51.387Z,13.60
2022-09-22T08:51:20.534Z,13.60
2022-09-22T08:52:44.212Z,13.70
2022-09-22T08:53:50.551Z,13.70
2022-09-22T08:54:54.880Z,13.80
2022-09-22T08:56:07.055Z,13.80
2022-09-22T08:57:30.279Z,13.70
2022-09-22T08:58:32.247Z,13.70
2022-09-22T08:59:53.413Z,13.70
2022-09-22T09:01:18.719Z,13.80
2022-09-22T09:03:00.537Z,13.80
2022-09-22T09:04:17.347Z,13.80
2022-09-22T09:05:27.779Z,13.80
2022-09-22T09:06:47.217Z,13.90
2022-09-22T09:08:21.714Z,14.00
2022-09-22T09:09:38.703Z,14.00
2022-09-22T09:10:56.859Z,14.00
2022-09-22T09:12:43.919Z,14.00
2022-09-22T09:14:19.601Z,13.90
2022-09-22T09:15:30.431Z,13.80
2022-09-22T09:16:50.373Z,13.70
2022-09-22T09:18:03.426Z,13.70
2022-09-22T09:19:20.585Z,13.80
2022-09-22T09:20:39.441Z,13.90
2022-09-22T09:21:57.847Z,14.00
2022-09-22T09:23:07.728Z,14.10
2022-09-22T09:25:56.454Z,14.00
2022-09-22T09:27:16.336Z,13.80
2022-09-22T09:28:27.844Z,13.80
2022-09-22T09:29:38.625Z,13.80
2022-09-22T09:31:20.868Z,13.80
2022-09-22T09:32:36.588Z,13.80
2022-09-22T09:34:03.475Z,13.80
2022-09-22T09:35:06.182Z,13.90
2022-09-22T09:36:25.832Z,13.90
2022-09-22T09:38:01.937Z,13.90
2022-09-22T09:39:30.561Z,13.90
2022-09-22T09:40:33.341Z,13.80
2022-09-22T09:41:36.754Z,13.80
2022-09-22T09:42:39.050Z,13.80
2022-09-22T09:43:45.765Z,13.80
2022-09-22T09:44:56.885Z,13.90
2022-09-22T09:46:13.988Z,14.00
2022-09-22T09:47:40.523Z,13.80
2022-09-22T09:49:03.357Z,13.70
2022-09-22T09:50:23.532Z,13.70
2022-09-22T09:51:39.557Z,13.60
2022-09-22T09:52:46.368Z,13.60
2022-09-22T09:53:48.995Z,13.60
2022-09-22T09:54:56.696Z,13.70
2022-09-22T09:56:17.197Z,13.70
2022-09-22T09:57:35.079Z,13.80
2022-09-22T09:59:14.484Z,14.00
2022-09-22T10:00:32.422Z,13.90
2022-09-22T10:01:50.795Z,13.90
2022-09-22T10:03:05.775Z,13.90
2022-09-22T10:04:30.612Z,14.00
2022-09-22T10:05:37.779Z,14.00
2022-09-22T10:06:40.053Z,13.90
2022-09-22T10:07:48.564Z,13.90
2022-09-22T10:08:51.729Z,14.00
2022-09-22T10:09:55.292Z,14.00
2022-09-22T10:10:59.286Z,14.10
2022-09-22T10:12:04.811Z,14.20
2022-09-22T10:14:51.239Z,14.40
2022-09-22T10:16:21.010Z,14.50
2022-09-22T10:17:28.561Z,14.30
2022-09-22T10:18:41.588Z,14.10
2022-09-22T10:19:43.358Z,14.00
2022-09-22T10:20:45.071Z,13.90
2022-09-22T10:21:46.865Z,13.80
2022-09-22T10:22:49.078Z,13.80
2022-09-22T10:23:56.320Z,13.80
2022-09-22T10:25:02.848Z,13.70
2022-09-22T10:26:13.796Z,13.70
2022-09-22T10:27:21.119Z,13.70
2022-09-22T10:28:22.809Z,13.70
2022-09-22T10:29:25.139Z,13.70
2022-09-22T10:30:27.554Z,13.70
2022-09-22T10:31:29.417Z,13.80
2022-09-22T10:32:31.381Z,13.80
2022-09-22T10:33:33.899Z,13.90
2022-09-22T10:36:07.829Z,14.00
2022-09-22T10:37:17.004Z,13.90
2022-09-22T10:38:27.500Z,14.00
2022-09-22T10:39:56.354Z,14.00
2022-09-22T10:41:14.430Z,14.10
2022-09-22T10:42:42.465Z,14.20
2022-09-22T10:44:35.118Z,14.30
2022-09-22T10:46:11.825Z,14.50
2022-09-22T10:47:23.589Z,14.80
2022-09-22T10:48:41.145Z,15.00
2022-09-22T10:50:28.568Z,15.20
2022-09-22T10:51:59.810Z,15.10
2022-09-22T10:53:11.896Z,14.80
2022-09-22T10:54:28.640Z,14.40
2022-09-22T10:56:07.718Z,14.40
2022-09-22T10:57:45.412Z,14.10
2022-09-22T10:59:27.696Z,14.00
2022-09-22T11:00:35.302Z,14.10
2022-09-22T11:02:10.402Z,14.00
2022-09-22T11:03:47.417Z,13.90
2022-09-22T11:05:48.916Z,13.90
2022-09-22T11:07:55.622Z,14.20
2022-09-22T11:09:20.331Z,15.10
2022-09-22T11:10:56.630Z,15.40
2022-09-22T11:12:16.510Z,15.30
2022-09-22T11:13:34.988Z,15.10
2022-09-22T11:14:36.779Z,14.80
2022-09-22T11:15:59.735Z,14.60
2022-09-22T11:17:11.121Z,14.50
2022-09-22T11:18:19.476Z,14.30
2022-09-22T11:19:29.964Z,14.20
2022-09-22T11:20:39.288Z,14.10
2022-09-22T11:22:20.237Z,14.40
2022-09-22T11:23:49.297Z,16.20
2022-09-22T11:25:14.111Z,16.90
2022-09-22T11:26:24.849Z,17.40
2022-09-22T11:27:43.212Z,18.30
2022-09-22T11:29:00.694Z,19.80
2022-09-22T11:30:20.634Z,20.40
2022-09-22T11:31:47.332Z,20.10
2022-09-22T11:33:13.430Z,19.30
2022-09-22T11:34:43.167Z,18.30
2022-09-22T11:36:04.680Z,17.40
2022-09-22T11:37:31.799Z,17.70
2022-09-22T11:38:51.473Z,17.40
2022-09-22T11:40:25.400Z,16.90
2022-09-22T11:41:30.040Z,16.50
2022-09-22T11:42:52.218Z,16.40
2022-09-22T11:44:02.924Z,16.60
2022-09-22T11:45:23.251Z,16.60
2022-09-22T11:46:46.738Z,16.30
2022-09-22T11:48:10.735Z,16.00
2022-09-22T11:49:43.668Z,15.80
2022-09-22T11:51:12.577Z,15.60
2022-09-22T11:52:58.425Z,15.30
2022-09-22T11:54:21.549Z,15.10
2022-09-22T11:55:36.673Z,14.90
2022-09-22T11:56:42.984Z,14.70
2022-09-22T11:57:51.335Z,14.70
2022-09-22T11:58:59.256Z,14.70
2022-09-22T12:00:06.091Z,14.60
2022-09-22T12:01:15.098Z,14.60
2022-09-22T12:02:20.797Z,14.70
2022-09-22T12:03:33.224Z,14.80
2022-09-22T12:04:40.714Z,14.80
2022-09-22T12:05:53.006Z,14.70
2022-09-22T12:06:57.544Z,14.40
2022-09-22T12:08:14.137Z,14.30
2022-09-22T12:09:36.590Z,14.20
2022-09-22T12:10:43.032Z,14.10
2022-09-22T12:11:45.844Z,13.90
2022-09-22T12:12:50.784Z,13.90
2022-09-22T12:13:55.913Z,13.90
2022-09-22T12:15:07.349Z,13.80
2022-09-22T12:16:31.416Z,13.80
2022-09-22T12:18:02.927Z,13.70
2022-09-22T12:19:49.468Z,13.70
2022-09-22T12:21:01.115Z,13.60
2022-09-22T12:22:29.602Z,13.60
2022-09-22T12:23:41.608Z,13.70
2022-09-22T12:24:47.106Z,13.60
2022-09-22T12:25:54.680Z,13.60
2022-09-22T12:26:56.523Z,13.70
2022-09-22T12:27:59.026Z,13.80
2022-09-22T12:29:04.887Z,13.90
2022-09-22T12:30:13.459Z,14.00
2022-09-22T12:31:18.826Z,14.10
2022-09-22T12:32:33.022Z,14.20
2022-09-22T12:33:37.378Z,14.30
2022-09-22T12:34:43.393Z,14.70
2022-09-22T12:35:53.627Z,14.80
2022-09-22T12:36:59.668Z,14.80
2022-09-22T12:38:02.580Z,14.70
2022-09-22T12:39:09.895Z,14.60
2022-09-22T12:40:14.418Z,14.60
2022-09-22T12:41:18.433Z,14.70
2022-09-22T12:42:22.588Z,14.70
2022-09-22T12:43:25.224Z,14.80
2022-09-22T12:44:36.892Z,14.90
2022-09-22T12:45:42.535Z,14.90
2022-09-22T12:46:45.009Z,15.00
2022-09-22T12:47:53.139Z,15.00
2022-09-22T12:48:55.050Z,15.00
2022-09-22T12:49:59.295Z,15.10
2022-09-22T12:51:26.000Z,15.20
2022-09-22T12:52:40.105Z,15.40
2022-09-22T12:53:43.840Z,15.50
2022-09-22T12:54:49.082Z,15.80
2022-09-22T12:55:55.601Z,16.00
2022-09-22T12:58:24.256Z,17.20
2022-09-22T12:59:54.550Z,17.40
2022-09-22T13:01:27.377Z,17.70
2022-09-22T13:02:41.167Z,17.50
2022-09-22T13:03:50.750Z,16.80
2022-09-22T13:05:24.492Z,16.50
2022-09-22T13:06:26.236Z,16.00
2022-09-22T13:07:42.467Z,15.70
2022-09-22T13:08:44.228Z,16.30
2022-09-22T13:09:46.250Z,17.40
2022-09-22T13:11:08.581Z,18.50
2022-09-22T13:12:13.452Z,19.40
2022-09-22T13:13:36.714Z,19.20
2022-09-22T13:15:15.532Z,19.10
2022-09-22T13:16:18.122Z,18.50
2022-09-22T13:17:43.203Z,17.40
2022-09-22T13:19:09.426Z,16.60
2022-09-22T13:20:24.416Z,16.00
2022-09-22T13:21:31.460Z,15.50
2022-09-22T13:22:33.558Z,15.20
2022-09-22T13:23:35.694Z,15.00
2022-09-22T13:24:37.448Z,14.80
2022-09-22T13:25:40.023Z,14.70
2022-09-22T13:26:41.980Z,14.60
2022-09-22T13:27:45.724Z,14.50
2022-09-22T13:29:04.966Z,14.40
2022-09-22T13:30:14.482Z,14.30
2022-09-22T13:31:17.721Z,14.10
2022-09-22T13:32:26.886Z,14.00
2022-09-22T13:33:33.816Z,13.90
2022-09-22T13:34:36.812Z,13.70
2022-09-22T13:35:41.118Z,13.60
2022-09-22T13:36:44.349Z,13.50
2022-09-22T13:37:46.392Z,13.40
2022-09-22T13:38:53.034Z,13.40
2022-09-22T13:39:55.343Z,13.40
2022-09-22T13:40:57.915Z,13.30
2022-09-22T13:42:19.533Z,13.30
2022-09-22T13:43:33.554Z,13.20
2022-09-22T13:44:39.999Z,13.10
2022-09-22T13:45:46.210Z,13.00
2022-09-22T13:46:50.953Z,12.90
2022-09-22T13:47:57.413Z,12.80
2022-09-22T13:49:00.006Z,12.60
2022-09-22T13:50:06.067Z,12.50
2022-09-22T13:51:09.744Z,12.40
2022-09-22T13:52:16.437Z,12.30
2022-09-22T13:53:20.422Z,12.30
2022-09-22T13:54:25.087Z,12.30
2022-09-22T13:55:35.551Z,12.20
2022-09-22T13:56:37.937Z,12.20
2022-09-22T13:57:39.953Z,12.20
2022-09-22T13:58:44.974Z,12.10
2022-09-22T13:59:46.677Z,12.10
2022-09-22T14:01:12.651Z,12.10
2022-09-22T14:02:22.225Z,12.10
2022-09-22T14:03:24.099Z,12.10
2022-09-22T14:04:27.755Z,12.00
2022-09-22T14:05:33.618Z,12.00
2022-09-22T14:06:35.498Z,12.00
2022-09-22T14:07:49.882Z,12.00
2022-09-22T14:09:01.630Z,12.00
2022-09-22T14:10:05.179Z,12.00
2022-09-22T14:11:18.995Z,11.90
2022-09-22T14:12:21.058Z,11.90
2022-09-22T14:13:43.195Z,11.90
2022-09-22T14:14:45.220Z,11.90
2022-09-22T14:15:47.621Z,11.80
2022-09-22T14:16:57.511Z,11.80
2022-09-22T14:18:02.126Z,11.80
2022-09-22T14:19:19.695Z,11.80
2022-09-22T14:20:21.683Z,11.70
2022-09-22T14:21:23.667Z,11.70
2022-09-22T14:22:34.079Z,11.70
2022-09-22T14:23:35.957Z,11.80
2022-09-22T14:24:42.820Z,11.80
2022-09-22T14:25:45.789Z,11.80
2022-09-22T14:27:03.697Z,11.80
2022-09-22T14:28:06.196Z,11.80
2022-09-22T14:29:19.191Z,11.80
2022-09-22T14:30:24.365Z,11.80
2022-09-22T14:31:30.392Z,11.80
2022-09-22T14:32:39.730Z,11.80
2022-09-22T14:33:45.449Z,11.80
2022-09-22T14:34:50.728Z,11.80
2022-09-22T14:36:00.857Z,11.80
2022-09-22T14:37:40.342Z,11.90
2022-09-22T14:38:47.940Z,11.90
2022-09-22T14:39:58.608Z,11.80
2022-09-22T14:41:01.654Z,11.80
2022-09-22T14:42:17.603Z,11.80
2022-09-22T14:43:33.312Z,11.90
2022-09-22T14:44:39.476Z,11.90
2022-09-22T14:46:00.752Z,11.90
2022-09-22T14:47:18.465Z,11.90
2022-09-22T14:48:21.054Z,11.90
2022-09-22T14:49:40.845Z,11.90
2022-09-22T14:50:55.865Z,11.90
2022-09-22T14:52:00.945Z,12.00
2022-09-22T14:53:12.068Z,12.00
2022-09-22T14:54:15.573Z,12.00
2022-09-22T14:55:25.872Z,12.00
2022-09-22T14:56:32.437Z,11.90
2022-09-22T14:57:35.813Z,11.90
2022-09-22T14:58:40.900Z,12.00
2022-09-22T15:00:11.348Z,12.00
2022-09-22T15:01:42.123Z,12.00
2022-09-22T15:02:50.112Z,12.00
2022-09-22T15:04:22.914Z,12.00
2022-09-22T15:05:34.312Z,12.10
2022-09-22T15:06:39.848Z,12.10
2022-09-22T15:07:48.241Z,12.10
2022-09-22T15:08:52.376Z,12.10
2022-09-22T15:10:04.422Z,12.10
2022-09-22T15:11:06.919Z,12.10
2022-09-22T15:12:37.909Z,12.10
2022-09-22T15:13:45.511Z,12.00
2022-09-22T15:14:48.620Z,12.00
2022-09-22T15:15:50.530Z,12.00
2022-09-22T15:16:52.324Z,12.00
2022-09-22T15:18:15.873Z,12.00
2022-09-22T15:19:17.679Z,12.00
2022-09-22T15:20:26.639Z,11.90
2022-09-22T15:21:29.373Z,11.90
2022-09-22T15:22:31.146Z,12.00
2022-09-22T15:23:42.179Z,11.90
2022-09-22T15:24:46.785Z,11.90
2022-09-22T15:25:50.354Z,11.90
2022-09-22T15:26:52.176Z,11.90
2022-09-22T15:27:54.016Z,11.90
2022-09-22T15:28:59.015Z,11.90
2022-09-22T15:30:00.780Z,12.00
2022-09-22T15:31:05.400Z,12.00
2022-09-22T15:32:07.739Z,12.00
2022-09-22T15:33:14.433Z,12.00
2022-09-22T15:34:16.896Z,11.90
2022-09-22T15:35:18.902Z,11.90
2022-09-22T15:36:22.746Z,11.90
2022-09-22T15:37:24.616Z,11.90
2022-09-22T15:38:29.849Z,11.90
2022-09-22T15:39:31.814Z,11.80
2022-09-22T15:40:33.604Z,11.80
2022-09-22T15:41:35.645Z,11.80
2022-09-22T15:42:44.891Z,11.70
2022-09-22T15:43:58.568Z,11.70
2022-09-22T15:45:00.274Z,11.70
2022-09-22T15:46:04.574Z,11.60
2022-09-22T15:47:10.463Z,11.60
2022-09-22T15:48:12.128Z,11.60
2022-09-22T15:49:26.369Z,11.60
2022-09-22T15:50:29.489Z,11.50
2022-09-22T15:51:32.922Z,11.40
2022-09-22T15:52:35.527Z,11.40
2022-09-22T15:53:38.700Z,11.30
2022-09-22T15:54:40.563Z,11.20
2022-09-22T15:55:43.212Z,11.10
2022-09-22T15:56:48.213Z,11.00